sensor_id;sensor_type;location;lat;lon;timestamp;temperature;humidity
69204;DHT22;56317;27.658;85.326;2023-03-01T00:01:41;9.40;99.90
69204;DHT22;56317;27.658;85.326;2023-03-01T00:04:08;9.40;99.90
69204;DHT22;56317;27.658;85.326;2023-03-01T00:06:36;9.40;99.90
69204;DHT22;56317;27.658;85.326;2023-03-01T00:09:04;9.40;99.90
69204;DHT22;56317;27.658;85.326;2023-03-01T00:11:32;9.30;99.90
69204;DHT22;56317;27.658;85.326;2023-03-01T00:14:01;9.40;99.90
69204;DHT22;56317;27.658;85.326;2023-03-01T00:16:41;9.40;99.90
69204;DHT22;56317;27.658;85.326;2023-03-01T00:19:14;9.40;99.90
69204;DHT22;56317;27.658;85.326;2023-03-01T00:21:42;9.30;99.90
69204;DHT22;56317;27.658;85.326;2023-03-01T00:24:10;9.20;99.90
69204;DHT22;56317;27.658;85.326;2023-03-01T00:26:37;9.20;99.90
69204;DHT22;56317;27.658;85.326;2023-03-01T00:29:05;9.20;99.90
69204;DHT22;56317;27.658;85.326;2023-03-01T00:31:33;9.20;99.90
69204;DHT22;56317;27.658;85.326;2023-03-01T00:34:03;9.20;99.90
69204;DHT22;56317;27.658;85.326;2023-03-01T00:36:32;9.20;99.90
69204;DHT22;56317;27.658;85.326;2023-03-01T00:39:00;9.20;99.90
69204;DHT22;56317;27.658;85.326;2023-03-01T00:41:27;9.10;99.90
69204;DHT22;56317;27.658;85.326;2023-03-01T00:43:55;9.10;99.90
69204;DHT22;56317;27.658;85.326;2023-03-01T00:46:25;9.10;99.90
69204;DHT22;56317;27.658;85.326;2023-03-01T00:48:53;9.20;99.90
69204;DHT22;56317;27.658;85.326;2023-03-01T00:51:24;9.20;99.90
69204;DHT22;56317;27.658;85.326;2023-03-01T00:53:53;9.20;99.90
69204;DHT22;56317;27.658;85.326;2023-03-01T00:56:21;9.30;99.90
69204;DHT22;56317;27.658;85.326;2023-03-01T00:58:49;9.30;99.90
69204;DHT22;56317;27.658;85.326;2023-03-01T01:01:20;9.40;99.90
69204;DHT22;56317;27.658;85.326;2023-03-01T01:03:55;9.40;99.90
69204;DHT22;56317;27.658;85.326;2023-03-01T01:06:35;9.40;99.90
69204;DHT22;56317;27.658;85.326;2023-03-01T01:09:05;9.40;99.90
69204;DHT22;56317;27.658;85.326;2023-03-01T01:11:33;9.50;99.90
69204;DHT22;56317;27.658;85.326;2023-03-01T01:14:02;9.50;99.90
69204;DHT22;56317;27.658;85.326;2023-03-01T01:16:30;9.50;99.90
69204;DHT22;56317;27.658;85.326;2023-03-01T01:18:58;9.60;99.90
69204;DHT22;56317;27.658;85.326;2023-03-01T01:21:26;9.70;99.90
69204;DHT22;56317;27.658;85.326;2023-03-01T01:23:54;9.80;99.90
69204;DHT22;56317;27.658;85.326;2023-03-01T01:26:26;9.90;99.90
69204;DHT22;56317;27.658;85.326;2023-03-01T01:28:54;10.00;99.90
69204;DHT22;56317;27.658;85.326;2023-03-01T01:31:22;10.10;99.90
69204;DHT22;56317;27.658;85.326;2023-03-01T01:33:51;10.20;99.90
69204;DHT22;56317;27.658;85.326;2023-03-01T01:36:19;10.30;99.90
69204;DHT22;56317;27.658;85.326;2023-03-01T01:38:46;10.40;99.90
69204;DHT22;56317;27.658;85.326;2023-03-01T01:41:14;10.50;99.90
69204;DHT22;56317;27.658;85.326;2023-03-01T01:43:50;10.60;99.90
69204;DHT22;56317;27.658;85.326;2023-03-01T01:46:33;10.70;99.90
69204;DHT22;56317;27.658;85.326;2023-03-01T01:49:28;10.90;99.90
69204;DHT22;56317;27.658;85.326;2023-03-01T01:52:08;11.00;99.90
69204;DHT22;56317;27.658;85.326;2023-03-01T01:57:20;11.30;99.90
69204;DHT22;56317;27.658;85.326;2023-03-01T01:59:56;11.40;99.90
69204;DHT22;56317;27.658;85.326;2023-03-01T02:02:26;11.60;99.90
69204;DHT22;56317;27.658;85.326;2023-03-01T02:05:01;11.70;99.90
69204;DHT22;56317;27.658;85.326;2023-03-01T02:07:30;11.90;99.90
69204;DHT22;56317;27.658;85.326;2023-03-01T02:09:58;12.10;99.90
69204;DHT22;56317;27.658;85.326;2023-03-01T02:12:26;12.30;99.90
69204;DHT22;56317;27.658;85.326;2023-03-01T02:14:54;12.50;99.90
69204;DHT22;56317;27.658;85.326;2023-03-01T02:17:21;12.60;99.90
69204;DHT22;56317;27.658;85.326;2023-03-01T02:22:40;12.90;99.90
69204;DHT22;56317;27.658;85.326;2023-03-01T02:28:18;13.20;99.90
69204;DHT22;56317;27.658;85.326;2023-03-01T02:30:48;13.30;99.90
69204;DHT22;56317;27.658;85.326;2023-03-01T02:33:36;13.50;99.90
69204;DHT22;56317;27.658;85.326;2023-03-01T02:36:08;13.60;99.90
69204;DHT22;56317;27.658;85.326;2023-03-01T02:38:37;13.80;99.90
69204;DHT22;56317;27.658;85.326;2023-03-01T02:41:05;14.00;99.90
69204;DHT22;56317;27.658;85.326;2023-03-01T02:43:34;14.30;99.90
69204;DHT22;56317;27.658;85.326;2023-03-01T02:46:20;14.50;99.90
69204;DHT22;56317;27.658;85.326;2023-03-01T02:48:51;14.80;99.90
69204;DHT22;56317;27.658;85.326;2023-03-01T02:51:48;15.00;99.90
69204;DHT22;56317;27.658;85.326;2023-03-01T02:54:54;15.20;99.90
69204;DHT22;56317;27.658;85.326;2023-03-01T02:57:20;15.50;99.90
69204;DHT22;56317;27.658;85.326;2023-03-01T02:59:48;15.70;99.90
69204;DHT22;56317;27.658;85.326;2023-03-01T03:02:25;16.00;99.90
69204;DHT22;56317;27.658;85.326;2023-03-01T03:05:23;16.30;99.90
69204;DHT22;56317;27.658;85.326;2023-03-01T03:07:51;16.50;99.90
69204;DHT22;56317;27.658;85.326;2023-03-01T03:10:30;16.70;99.90
69204;DHT22;56317;27.658;85.326;2023-03-01T03:12:59;17.00;99.90
69204;DHT22;56317;27.658;85.326;2023-03-01T03:15:28;17.20;99.90
69204;DHT22;56317;27.658;85.326;2023-03-01T03:17:57;17.40;99.90
69204;DHT22;56317;27.658;85.326;2023-03-01T03:20:27;17.60;99.90
69204;DHT22;56317;27.658;85.326;2023-03-01T03:22:56;17.80;99.90
69204;DHT22;56317;27.658;85.326;2023-03-01T03:25:26;18.00;99.90
69204;DHT22;56317;27.658;85.326;2023-03-01T03:27:54;18.30;99.90
69204;DHT22;56317;27.658;85.326;2023-03-01T03:30:28;18.50;99.90
69204;DHT22;56317;27.658;85.326;2023-03-01T03:32:58;18.70;99.90
69204;DHT22;56317;27.658;85.326;2023-03-01T03:35:37;19.00;99.90
69204;DHT22;56317;27.658;85.326;2023-03-01T03:38:07;19.10;99.90
69204;DHT22;56317;27.658;85.326;2023-03-01T03:40:47;19.40;99.90
69204;DHT22;56317;27.658;85.326;2023-03-01T03:43:22;19.70;99.90
69204;DHT22;56317;27.658;85.326;2023-03-01T03:45:50;19.90;99.90
69204;DHT22;56317;27.658;85.326;2023-03-01T03:48:19;20.10;99.90
69204;DHT22;56317;27.658;85.326;2023-03-01T03:50:52;20.30;99.90
69204;DHT22;56317;27.658;85.326;2023-03-01T03:53:20;20.50;99.90
69204;DHT22;56317;27.658;85.326;2023-03-01T03:55:47;20.70;99.90
69204;DHT22;56317;27.658;85.326;2023-03-01T03:58:20;20.90;99.90
69204;DHT22;56317;27.658;85.326;2023-03-01T04:00:50;21.20;99.90
69204;DHT22;56317;27.658;85.326;2023-03-01T04:03:19;21.40;99.90
69204;DHT22;56317;27.658;85.326;2023-03-01T04:05:47;21.40;99.90
69204;DHT22;56317;27.658;85.326;2023-03-01T04:08:20;21.60;99.90
69204;DHT22;56317;27.658;85.326;2023-03-01T04:10:48;21.80;99.90
69204;DHT22;56317;27.658;85.326;2023-03-01T04:13:19;22.10;98.90
69204;DHT22;56317;27.658;85.326;2023-03-01T04:15:51;22.50;98.20
69204;DHT22;56317;27.658;85.326;2023-03-01T04:18:20;22.80;97.10
69204;DHT22;56317;27.658;85.326;2023-03-01T04:20:48;23.00;96.70
69204;DHT22;56317;27.658;85.326;2023-03-01T04:23:20;23.30;96.00
69204;DHT22;56317;27.658;85.326;2023-03-01T04:25:55;23.50;95.10
69204;DHT22;56317;27.658;85.326;2023-03-01T04:28:31;23.60;94.80
69204;DHT22;56317;27.658;85.326;2023-03-01T04:31:14;24.00;94.20
69204;DHT22;56317;27.658;85.326;2023-03-01T04:33:52;24.40;92.80
69204;DHT22;56317;27.658;85.326;2023-03-01T04:36:23;24.70;91.90
69204;DHT22;56317;27.658;85.326;2023-03-01T04:38:52;25.00;90.20
69204;DHT22;56317;27.658;85.326;2023-03-01T04:41:21;25.20;87.80
69204;DHT22;56317;27.658;85.326;2023-03-01T04:43:49;25.10;83.30
69204;DHT22;56317;27.658;85.326;2023-03-01T04:46:19;25.00;81.50
69204;DHT22;56317;27.658;85.326;2023-03-01T04:48:47;25.20;79.60
69204;DHT22;56317;27.658;85.326;2023-03-01T04:51:15;25.30;78.10
69204;DHT22;56317;27.658;85.326;2023-03-01T04:53:44;25.50;75.70
69204;DHT22;56317;27.658;85.326;2023-03-01T04:56:12;25.80;77.90
69204;DHT22;56317;27.658;85.326;2023-03-01T04:58:40;26.20;76.30
69204;DHT22;56317;27.658;85.326;2023-03-01T05:01:13;27.00;73.00
69204;DHT22;56317;27.658;85.326;2023-03-01T05:03:45;28.00;71.30
69204;DHT22;56317;27.658;85.326;2023-03-01T05:06:13;28.90;68.70
69204;DHT22;56317;27.658;85.326;2023-03-01T05:08:42;29.80;65.80
69204;DHT22;56317;27.658;85.326;2023-03-01T05:11:10;30.30;62.70
69204;DHT22;56317;27.658;85.326;2023-03-01T05:13:38;30.50;61.30
69204;DHT22;56317;27.658;85.326;2023-03-01T05:16:07;30.90;60.20
69204;DHT22;56317;27.658;85.326;2023-03-01T05:18:37;31.70;59.30
69204;DHT22;56317;27.658;85.326;2023-03-01T05:21:13;32.40;55.70
69204;DHT22;56317;27.658;85.326;2023-03-01T05:23:42;33.10;55.00
69204;DHT22;56317;27.658;85.326;2023-03-01T05:26:10;33.80;52.50
69204;DHT22;56317;27.658;85.326;2023-03-01T05:28:39;34.30;51.70
69204;DHT22;56317;27.658;85.326;2023-03-01T05:31:07;34.80;50.60
69204;DHT22;56317;27.658;85.326;2023-03-01T05:33:40;35.10;49.80
69204;DHT22;56317;27.658;85.326;2023-03-01T05:36:09;35.20;47.90
69204;DHT22;56317;27.658;85.326;2023-03-01T05:38:37;35.20;47.80
69204;DHT22;56317;27.658;85.326;2023-03-01T05:41:04;35.40;46.60
69204;DHT22;56317;27.658;85.326;2023-03-01T05:43:32;35.70;45.60
69204;DHT22;56317;27.658;85.326;2023-03-01T05:46:02;35.80;47.10
69204;DHT22;56317;27.658;85.326;2023-03-01T05:48:29;36.30;45.60
69204;DHT22;56317;27.658;85.326;2023-03-01T05:51:00;36.60;45.00
69204;DHT22;56317;27.658;85.326;2023-03-01T05:53:27;37.20;43.10
69204;DHT22;56317;27.658;85.326;2023-03-01T05:55:54;37.10;43.30
69204;DHT22;56317;27.658;85.326;2023-03-01T05:58:21;36.90;42.90
69204;DHT22;56317;27.658;85.326;2023-03-01T06:00:49;37.40;43.60
69204;DHT22;56317;27.658;85.326;2023-03-01T06:03:17;38.00;42.90
69204;DHT22;56317;27.658;85.326;2023-03-01T06:05:45;38.50;41.10
69204;DHT22;56317;27.658;85.326;2023-03-01T06:08:13;38.60;40.90
69204;DHT22;56317;27.658;85.326;2023-03-01T06:10:40;39.00;40.70
69204;DHT22;56317;27.658;85.326;2023-03-01T06:13:08;39.40;40.20
69204;DHT22;56317;27.658;85.326;2023-03-01T06:15:35;39.50;40.00
69204;DHT22;56317;27.658;85.326;2023-03-01T06:18:02;39.80;40.20
69204;DHT22;56317;27.658;85.326;2023-03-01T06:20:30;39.90;39.50
69204;DHT22;56317;27.658;85.326;2023-03-01T06:22:57;39.70;40.20
69204;DHT22;56317;27.658;85.326;2023-03-01T06:25:27;40.00;39.00
69204;DHT22;56317;27.658;85.326;2023-03-01T06:27:55;40.30;38.80
69204;DHT22;56317;27.658;85.326;2023-03-01T06:30:24;40.50;38.70
69204;DHT22;56317;27.658;85.326;2023-03-01T06:32:52;40.40;38.30
69204;DHT22;56317;27.658;85.326;2023-03-01T06:35:27;39.80;38.30
69204;DHT22;56317;27.658;85.326;2023-03-01T06:37:59;38.00;38.80
69204;DHT22;56317;27.658;85.326;2023-03-01T06:40:28;37.70;40.00
69204;DHT22;56317;27.658;85.326;2023-03-01T06:42:55;38.70;39.70
69204;DHT22;56317;27.658;85.326;2023-03-01T06:45:22;39.50;38.80
69204;DHT22;56317;27.658;85.326;2023-03-01T06:47:50;40.00;39.10
69204;DHT22;56317;27.658;85.326;2023-03-01T06:50:18;40.40;38.10
69204;DHT22;56317;27.658;85.326;2023-03-01T06:52:46;40.50;38.10
69204;DHT22;56317;27.658;85.326;2023-03-01T06:55:14;40.90;37.70
69204;DHT22;56317;27.658;85.326;2023-03-01T06:57:41;41.00;37.50
69204;DHT22;56317;27.658;85.326;2023-03-01T07:00:09;40.80;37.90
69204;DHT22;56317;27.658;85.326;2023-03-01T07:02:37;41.20;38.10
69204;DHT22;56317;27.658;85.326;2023-03-01T07:05:04;41.90;37.20
69204;DHT22;56317;27.658;85.326;2023-03-01T07:07:32;42.20;37.60
69204;DHT22;56317;27.658;85.326;2023-03-01T07:09:59;41.80;37.00
69204;DHT22;56317;27.658;85.326;2023-03-01T07:12:27;42.20;36.90
69204;DHT22;56317;27.658;85.326;2023-03-01T07:14:54;42.70;36.60
69204;DHT22;56317;27.658;85.326;2023-03-01T07:17:21;42.90;36.50
69204;DHT22;56317;27.658;85.326;2023-03-01T07:19:48;43.20;36.20
69204;DHT22;56317;27.658;85.326;2023-03-01T07:22:16;43.00;36.00
69204;DHT22;56317;27.658;85.326;2023-03-01T07:24:43;43.20;35.90
69204;DHT22;56317;27.658;85.326;2023-03-01T07:27:11;43.30;35.80
69204;DHT22;56317;27.658;85.326;2023-03-01T07:29:38;43.20;35.90
69204;DHT22;56317;27.658;85.326;2023-03-01T07:32:06;43.20;36.10
69204;DHT22;56317;27.658;85.326;2023-03-01T07:34:33;43.50;35.50
69204;DHT22;56317;27.658;85.326;2023-03-01T07:37:01;43.70;35.60
69204;DHT22;56317;27.658;85.326;2023-03-01T07:39:28;43.40;36.00
69204;DHT22;56317;27.658;85.326;2023-03-01T07:41:55;43.70;35.80
69204;DHT22;56317;27.658;85.326;2023-03-01T07:44:23;43.70;36.00
69204;DHT22;56317;27.658;85.326;2023-03-01T07:46:50;43.70;35.40
69204;DHT22;56317;27.658;85.326;2023-03-01T07:49:23;43.70;35.20
69204;DHT22;56317;27.658;85.326;2023-03-01T07:51:50;43.70;35.50
69204;DHT22;56317;27.658;85.326;2023-03-01T07:54:17;41.30;35.50
69204;DHT22;56317;27.658;85.326;2023-03-01T07:56:45;37.90;37.50
69204;DHT22;56317;27.658;85.326;2023-03-01T07:59:12;35.20;40.00
69204;DHT22;56317;27.658;85.326;2023-03-01T08:01:39;33.40;41.60
69204;DHT22;56317;27.658;85.326;2023-03-01T08:04:08;33.80;43.40
69204;DHT22;56317;27.658;85.326;2023-03-01T08:06:36;35.40;42.00
69204;DHT22;56317;27.658;85.326;2023-03-01T08:09:03;37.00;40.60
69204;DHT22;56317;27.658;85.326;2023-03-01T08:11:31;37.80;39.60
69204;DHT22;56317;27.658;85.326;2023-03-01T08:13:58;38.90;39.80
69204;DHT22;56317;27.658;85.326;2023-03-01T08:16:25;40.20;39.10
69204;DHT22;56317;27.658;85.326;2023-03-01T08:18:53;41.00;38.10
69204;DHT22;56317;27.658;85.326;2023-03-01T08:21:23;41.30;37.60
69204;DHT22;56317;27.658;85.326;2023-03-01T08:23:50;41.30;37.80
69204;DHT22;56317;27.658;85.326;2023-03-01T08:26:20;42.10;37.80
69204;DHT22;56317;27.658;85.326;2023-03-01T08:28:48;42.10;36.10
69204;DHT22;56317;27.658;85.326;2023-03-01T08:33:47;40.70;37.00
69204;DHT22;56317;27.658;85.326;2023-03-01T08:36:16;40.70;36.80
69204;DHT22;56317;27.658;85.326;2023-03-01T08:38:44;39.60;37.20
69204;DHT22;56317;27.658;85.326;2023-03-01T08:41:12;39.00;37.50
69204;DHT22;56317;27.658;85.326;2023-03-01T08:43:40;39.40;38.10
69204;DHT22;56317;27.658;85.326;2023-03-01T08:46:07;38.50;37.90
69204;DHT22;56317;27.658;85.326;2023-03-01T08:48:34;37.10;38.50
69204;DHT22;56317;27.658;85.326;2023-03-01T08:51:09;35.70;39.70
69204;DHT22;56317;27.658;85.326;2023-03-01T08:53:37;36.00;41.00
69204;DHT22;56317;27.658;85.326;2023-03-01T08:56:04;37.10;40.10
69204;DHT22;56317;27.658;85.326;2023-03-01T08:58:32;38.30;40.00
69204;DHT22;56317;27.658;85.326;2023-03-01T09:00:59;39.30;38.90
69204;DHT22;56317;27.658;85.326;2023-03-01T09:03:27;40.00;37.80
69204;DHT22;56317;27.658;85.326;2023-03-01T09:06:00;40.30;37.60
69204;DHT22;56317;27.658;85.326;2023-03-01T09:08:28;40.40;37.10
69204;DHT22;56317;27.658;85.326;2023-03-01T09:10:56;39.80;37.30
69204;DHT22;56317;27.658;85.326;2023-03-01T09:13:23;39.90;37.80
69204;DHT22;56317;27.658;85.326;2023-03-01T09:15:51;39.70;37.70
69204;DHT22;56317;27.658;85.326;2023-03-01T09:18:18;40.00;37.90
69204;DHT22;56317;27.658;85.326;2023-03-01T09:20:46;40.40;37.20
69204;DHT22;56317;27.658;85.326;2023-03-01T09:23:13;40.60;36.90
69204;DHT22;56317;27.658;85.326;2023-03-01T09:25:40;39.80;36.90
69204;DHT22;56317;27.658;85.326;2023-03-01T09:28:08;37.70;37.60
69204;DHT22;56317;27.658;85.326;2023-03-01T09:30:37;35.00;39.70
69204;DHT22;56317;27.658;85.326;2023-03-01T09:33:04;34.00;41.60
69204;DHT22;56317;27.658;85.326;2023-03-01T09:35:31;35.10;41.20
69204;DHT22;56317;27.658;85.326;2023-03-01T09:37:59;36.30;40.60
69204;DHT22;56317;27.658;85.326;2023-03-01T09:40:27;36.30;39.90
69204;DHT22;56317;27.658;85.326;2023-03-01T09:46:11;36.50;39.80
69204;DHT22;56317;27.658;85.326;2023-03-01T09:48:54;36.20;40.00
69204;DHT22;56317;27.658;85.326;2023-03-01T09:51:33;35.70;40.60
69204;DHT22;56317;27.658;85.326;2023-03-01T09:54:05;34.40;41.50
69204;DHT22;56317;27.658;85.326;2023-03-01T09:56:45;33.50;42.20
69204;DHT22;56317;27.658;85.326;2023-03-01T09:59:23;31.70;43.40
69204;DHT22;56317;27.658;85.326;2023-03-01T10:01:58;29.60;45.30
69204;DHT22;56317;27.658;85.326;2023-03-01T10:09:57;27.30;50.00
69204;DHT22;56317;27.658;85.326;2023-03-01T10:12:35;27.20;50.40
69204;DHT22;56317;27.658;85.326;2023-03-01T10:15:15;26.90;51.30
69204;DHT22;56317;27.658;85.326;2023-03-01T10:17:55;27.10;51.90
69204;DHT22;56317;27.658;85.326;2023-03-01T10:23:12;27.60;50.40
69204;DHT22;56317;27.658;85.326;2023-03-01T10:30:53;27.60;49.00
69204;DHT22;56317;27.658;85.326;2023-03-01T10:33:35;26.70;50.30
69204;DHT22;56317;27.658;85.326;2023-03-01T10:36:04;27.20;51.10
69204;DHT22;56317;27.658;85.326;2023-03-01T10:38:54;27.10;50.40
69204;DHT22;56317;27.658;85.326;2023-03-01T10:41:22;26.30;51.60
69204;DHT22;56317;27.658;85.326;2023-03-01T10:43:52;26.10;51.70
69204;DHT22;56317;27.658;85.326;2023-03-01T10:46:30;25.40;52.70
69204;DHT22;56317;27.658;85.326;2023-03-01T10:51:33;24.40;54.10
69204;DHT22;56317;27.658;85.326;2023-03-01T10:54:02;24.20;55.50
69204;DHT22;56317;27.658;85.326;2023-03-01T10:56:49;24.40;55.70
69204;DHT22;56317;27.658;85.326;2023-03-01T11:07:53;23.30;57.70
69204;DHT22;56317;27.658;85.326;2023-03-01T11:10:29;23.20;58.70
69204;DHT22;56317;27.658;85.326;2023-03-01T11:13:17;23.80;58.40
69204;DHT22;56317;27.658;85.326;2023-03-01T11:16:05;24.40;57.30
69204;DHT22;56317;27.658;85.326;2023-03-01T11:18:33;24.40;56.80
69204;DHT22;56317;27.658;85.326;2023-03-01T11:21:01;24.20;57.20
69204;DHT22;56317;27.658;85.326;2023-03-01T11:23:31;24.00;57.90
69204;DHT22;56317;27.658;85.326;2023-03-01T11:26:07;23.60;58.70
69204;DHT22;56317;27.658;85.326;2023-03-01T11:28:39;23.30;60.30
69204;DHT22;56317;27.658;85.326;2023-03-01T11:31:11;22.80;61.10
69204;DHT22;56317;27.658;85.326;2023-03-01T11:36:35;21.80;65.00
69204;DHT22;56317;27.658;85.326;2023-03-01T11:45:06;20.70;68.60
69204;DHT22;56317;27.658;85.326;2023-03-01T11:50:20;20.20;70.70
69204;DHT22;56317;27.658;85.326;2023-03-01T11:56:14;19.70;73.60
69204;DHT22;56317;27.658;85.326;2023-03-01T12:01:33;19.20;75.50
69204;DHT22;56317;27.658;85.326;2023-03-01T12:06:44;19.00;78.00
69204;DHT22;56317;27.658;85.326;2023-03-01T12:12:40;18.60;78.80
69204;DHT22;56317;27.658;85.326;2023-03-01T12:15:39;18.50;81.70
69204;DHT22;56317;27.658;85.326;2023-03-01T12:26:52;17.90;90.80
69204;DHT22;56317;27.658;85.326;2023-03-01T12:38:45;17.40;98.40
69204;DHT22;56317;27.658;85.326;2023-03-01T12:44:19;17.40;99.90
69204;DHT22;56317;27.658;85.326;2023-03-01T12:49:38;17.20;99.90
69204;DHT22;56317;27.658;85.326;2023-03-01T12:54:45;17.10;99.90
69204;DHT22;56317;27.658;85.326;2023-03-01T12:57:40;17.00;99.90
69204;DHT22;56317;27.658;85.326;2023-03-01T13:06:25;16.90;99.90
69204;DHT22;56317;27.658;85.326;2023-03-01T13:11:33;16.80;99.90
69204;DHT22;56317;27.658;85.326;2023-03-01T13:16:53;16.70;99.90
69204;DHT22;56317;27.658;85.326;2023-03-01T13:19:28;16.60;99.90
69204;DHT22;56317;27.658;85.326;2023-03-01T13:21:56;16.60;99.90
69204;DHT22;56317;27.658;85.326;2023-03-01T13:24:40;16.60;99.90
69204;DHT22;56317;27.658;85.326;2023-03-01T13:29:55;16.50;99.90
69204;DHT22;56317;27.658;85.326;2023-03-01T13:32:31;16.50;99.90
69204;DHT22;56317;27.658;85.326;2023-03-01T13:37:36;16.50;99.90
69204;DHT22;56317;27.658;85.326;2023-03-01T13:42:47;16.40;99.90
69204;DHT22;56317;27.658;85.326;2023-03-01T13:45:39;16.40;99.90
69204;DHT22;56317;27.658;85.326;2023-03-01T13:50:50;16.40;99.90
69204;DHT22;56317;27.658;85.326;2023-03-01T13:53:20;16.40;99.90
69204;DHT22;56317;27.658;85.326;2023-03-01T13:55:52;16.40;99.90
69204;DHT22;56317;27.658;85.326;2023-03-01T13:58:26;16.40;99.90
69204;DHT22;56317;27.658;85.326;2023-03-01T14:01:02;16.40;99.90
69204;DHT22;56317;27.658;85.326;2023-03-01T14:03:32;16.40;99.90
69204;DHT22;56317;27.658;85.326;2023-03-01T14:06:13;16.40;99.90
69204;DHT22;56317;27.658;85.326;2023-03-01T14:08:43;16.30;99.90
69204;DHT22;56317;27.658;85.326;2023-03-01T14:11:31;16.30;99.90
69204;DHT22;56317;27.658;85.326;2023-03-01T14:19:38;16.10;99.90
69204;DHT22;56317;27.658;85.326;2023-03-01T14:24:50;16.00;99.90
69204;DHT22;56317;27.658;85.326;2023-03-01T14:27:18;16.00;99.90
69204;DHT22;56317;27.658;85.326;2023-03-01T14:29:56;15.90;99.90
69204;DHT22;56317;27.658;85.326;2023-03-01T14:32:28;15.90;99.90
69204;DHT22;56317;27.658;85.326;2023-03-01T14:34:57;15.90;99.90
69204;DHT22;56317;27.658;85.326;2023-03-01T14:37:33;15.80;99.90
69204;DHT22;56317;27.658;85.326;2023-03-01T14:40:03;15.80;99.90
69204;DHT22;56317;27.658;85.326;2023-03-01T14:42:37;15.80;99.90
69204;DHT22;56317;27.658;85.326;2023-03-01T14:45:05;15.70;99.90
69204;DHT22;56317;27.658;85.326;2023-03-01T14:47:35;15.70;99.90
69204;DHT22;56317;27.658;85.326;2023-03-01T14:50:07;15.60;99.90
69204;DHT22;56317;27.658;85.326;2023-03-01T14:52:41;15.50;99.90
69204;DHT22;56317;27.658;85.326;2023-03-01T14:55:27;15.50;99.90
69204;DHT22;56317;27.658;85.326;2023-03-01T14:57:57;15.50;99.90
69204;DHT22;56317;27.658;85.326;2023-03-01T15:00:30;15.40;99.90
69204;DHT22;56317;27.658;85.326;2023-03-01T15:03:05;15.30;99.90
69204;DHT22;56317;27.658;85.326;2023-03-01T15:05:36;15.30;99.90
69204;DHT22;56317;27.658;85.326;2023-03-01T15:08:04;15.30;99.90
69204;DHT22;56317;27.658;85.326;2023-03-01T15:10:34;15.20;99.90
69204;DHT22;56317;27.658;85.326;2023-03-01T15:13:23;15.20;99.90
69204;DHT22;56317;27.658;85.326;2023-03-01T15:15:53;15.10;99.90
69204;DHT22;56317;27.658;85.326;2023-03-01T15:18:27;15.10;99.90
69204;DHT22;56317;27.658;85.326;2023-03-01T15:21:05;15.00;99.90
69204;DHT22;56317;27.658;85.326;2023-03-01T15:23:32;15.00;99.90
69204;DHT22;56317;27.658;85.326;2023-03-01T15:26:00;15.00;99.90
69204;DHT22;56317;27.658;85.326;2023-03-01T15:28:39;14.90;99.90
69204;DHT22;56317;27.658;85.326;2023-03-01T15:31:29;14.80;99.90
69204;DHT22;56317;27.658;85.326;2023-03-01T15:34:21;14.80;99.90
69204;DHT22;56317;27.658;85.326;2023-03-01T15:36:51;14.70;99.90
69204;DHT22;56317;27.658;85.326;2023-03-01T15:47:52;14.60;99.90
69204;DHT22;56317;27.658;85.326;2023-03-01T15:50:28;14.60;99.90
69204;DHT22;56317;27.658;85.326;2023-03-01T15:52:56;14.60;99.90
69204;DHT22;56317;27.658;85.326;2023-03-01T15:55:27;14.50;99.90
69204;DHT22;56317;27.658;85.326;2023-03-01T15:58:17;14.50;99.90
69204;DHT22;56317;27.658;85.326;2023-03-01T16:00:46;14.50;99.90
69204;DHT22;56317;27.658;85.326;2023-03-01T16:03:15;14.40;99.90
69204;DHT22;56317;27.658;85.326;2023-03-01T16:05:48;14.30;99.90
69204;DHT22;56317;27.658;85.326;2023-03-01T16:08:17;14.30;99.90
69204;DHT22;56317;27.658;85.326;2023-03-01T16:10:45;14.30;99.90
69204;DHT22;56317;27.658;85.326;2023-03-01T16:13:14;14.20;99.90
69204;DHT22;56317;27.658;85.326;2023-03-01T16:15:41;14.20;99.90
69204;DHT22;56317;27.658;85.326;2023-03-01T16:18:09;14.20;99.90
69204;DHT22;56317;27.658;85.326;2023-03-01T16:20:38;14.20;99.90
69204;DHT22;56317;27.658;85.326;2023-03-01T16:23:07;14.10;99.90
69204;DHT22;56317;27.658;85.326;2023-03-01T16:25:35;14.10;99.90
69204;DHT22;56317;27.658;85.326;2023-03-01T16:28:04;14.10;99.90
69204;DHT22;56317;27.658;85.326;2023-03-01T16:30:36;14.10;99.90
69204;DHT22;56317;27.658;85.326;2023-03-01T16:33:03;14.10;99.90
69204;DHT22;56317;27.658;85.326;2023-03-01T16:35:38;14.10;99.90
69204;DHT22;56317;27.658;85.326;2023-03-01T16:38:06;14.10;99.90
69204;DHT22;56317;27.658;85.326;2023-03-01T16:40:33;14.00;99.90
69204;DHT22;56317;27.658;85.326;2023-03-01T16:43:01;14.00;99.90
69204;DHT22;56317;27.658;85.326;2023-03-01T16:45:34;14.00;99.90
69204;DHT22;56317;27.658;85.326;2023-03-01T16:48:07;13.90;99.90
69204;DHT22;56317;27.658;85.326;2023-03-01T16:50:34;13.90;99.90
69204;DHT22;56317;27.658;85.326;2023-03-01T16:53:01;13.90;99.90
69204;DHT22;56317;27.658;85.326;2023-03-01T16:55:29;13.80;99.90
69204;DHT22;56317;27.658;85.326;2023-03-01T16:57:56;13.80;99.90
69204;DHT22;56317;27.658;85.326;2023-03-01T17:00:23;13.70;99.90
69204;DHT22;56317;27.658;85.326;2023-03-01T17:02:50;13.60;99.90
69204;DHT22;56317;27.658;85.326;2023-03-01T17:05:18;13.50;99.90
69204;DHT22;56317;27.658;85.326;2023-03-01T17:07:47;13.40;99.90
69204;DHT22;56317;27.658;85.326;2023-03-01T17:10:14;13.30;99.90
69204;DHT22;56317;27.658;85.326;2023-03-01T17:12:41;13.20;99.90
69204;DHT22;56317;27.658;85.326;2023-03-01T17:15:09;13.20;99.90
69204;DHT22;56317;27.658;85.326;2023-03-01T17:17:38;13.10;99.90
69204;DHT22;56317;27.658;85.326;2023-03-01T17:20:06;13.10;99.90
69204;DHT22;56317;27.658;85.326;2023-03-01T17:22:33;13.10;99.90
69204;DHT22;56317;27.658;85.326;2023-03-01T17:25:01;13.00;99.90
69204;DHT22;56317;27.658;85.326;2023-03-01T17:27:28;13.00;99.90
69204;DHT22;56317;27.658;85.326;2023-03-01T17:29:55;12.90;99.90
69204;DHT22;56317;27.658;85.326;2023-03-01T17:32:23;12.90;99.90
69204;DHT22;56317;27.658;85.326;2023-03-01T17:34:50;12.80;99.90
69204;DHT22;56317;27.658;85.326;2023-03-01T17:37:17;12.80;99.90
69204;DHT22;56317;27.658;85.326;2023-03-01T17:39:44;12.80;99.90
69204;DHT22;56317;27.658;85.326;2023-03-01T17:42:11;12.70;99.90
69204;DHT22;56317;27.658;85.326;2023-03-01T17:44:39;12.70;99.90
69204;DHT22;56317;27.658;85.326;2023-03-01T17:47:06;12.60;99.90
69204;DHT22;56317;27.658;85.326;2023-03-01T17:49:33;12.60;99.90